createdAt,value
2023-05-23T00:00:33.054Z,964.35
2023-05-23T00:01:33.054Z,964.32
2023-05-23T00:02:33.103Z,964.31
2023-05-23T00:03:33.103Z,964.33
2023-05-23T00:04:33.003Z,964.33
2023-05-23T00:05:33.005Z,964.35
2023-05-23T00:06:32.988Z,964.33
2023-05-23T00:07:32.974Z,964.33
2023-05-23T00:08:32.969Z,964.32
2023-05-23T00:09:32.943Z,964.29
2023-05-23T00:10:33.023Z,964.32
2023-05-23T00:11:32.937Z,964.35
2023-05-23T00:12:33.146Z,964.33
2023-05-23T00:13:32.880Z,964.42
2023-05-23T00:14:32.934Z,964.40
2023-05-23T00:15:32.879Z,964.36
2023-05-23T00:16:32.927Z,964.40
2023-05-23T00:17:32.927Z,964.41
2023-05-23T00:18:32.860Z,964.37
2023-05-23T00:19:32.926Z,964.37
2023-05-23T00:20:32.817Z,964.34
2023-05-23T00:21:32.860Z,964.34
2023-05-23T00:22:32.812Z,964.28
2023-05-23T00:23:32.809Z,964.30
2023-05-23T00:24:32.822Z,964.25
2023-05-23T00:25:32.774Z,964.29
2023-05-23T00:26:32.765Z,964.27
2023-05-23T00:27:32.746Z,964.29
2023-05-23T00:28:32.741Z,964.25
2023-05-23T00:29:32.718Z,964.31
2023-05-23T00:30:32.713Z,964.26
2023-05-23T00:31:32.820Z,964.27
2023-05-23T00:32:32.732Z,964.28
2023-05-23T00:33:32.715Z,964.33
2023-05-23T00:34:32.663Z,964.29
2023-05-23T00:35:32.666Z,964.33
2023-05-23T00:36:32.642Z,964.33
2023-05-23T00:37:32.653Z,964.35
2023-05-23T00:38:32.638Z,964.31
2023-05-23T00:39:32.624Z,964.31
2023-05-23T00:40:32.607Z,964.29
2023-05-23T00:41:32.608Z,964.32
2023-05-23T00:42:32.605Z,964.33
2023-05-23T00:43:32.574Z,964.37
2023-05-23T00:44:32.575Z,964.29
2023-05-23T00:45:32.566Z,964.34
2023-05-23T00:46:32.583Z,964.36
2023-05-23T00:47:32.561Z,964.39
2023-05-23T00:48:32.557Z,964.44
2023-05-23T00:49:32.823Z,964.46
2023-05-23T00:50:32.488Z,964.46
2023-05-23T00:51:32.491Z,964.47
2023-05-23T00:52:32.489Z,964.44
2023-05-23T00:53:32.458Z,964.47
2023-05-23T00:54:32.452Z,964.45
2023-05-23T00:55:32.451Z,964.50
2023-05-23T00:56:32.428Z,964.49
2023-05-23T00:57:32.418Z,964.49
2023-05-23T00:58:32.398Z,964.51
2023-05-23T00:59:32.405Z,964.51
2023-05-23T01:00:32.373Z,964.53
2023-05-23T01:01:32.370Z,964.59
2023-05-23T01:02:32.429Z,964.56
2023-05-23T01:03:32.438Z,964.57
2023-05-23T01:04:32.338Z,964.58
2023-05-23T01:05:32.325Z,964.60
2023-05-23T01:06:32.328Z,964.59
2023-05-23T01:07:32.306Z,964.56
2023-05-23T01:08:32.288Z,964.58
2023-05-23T01:09:32.279Z,964.60
2023-05-23T01:10:32.258Z,964.57
2023-05-23T01:11:32.258Z,964.57
2023-05-23T01:12:32.289Z,964.58
2023-05-23T01:15:15.024Z,964.53
2023-05-23T01:16:16.060Z,964.55
2023-05-23T01:17:16.008Z,964.59
2023-05-23T01:18:16.004Z,964.62
2023-05-23T01:19:16.083Z,964.59
2023-05-23T01:20:15.958Z,964.64
2023-05-23T01:21:15.998Z,964.61
2023-05-23T01:22:15.958Z,964.58
2023-05-23T01:23:15.941Z,964.62
2023-05-23T01:24:15.923Z,964.53
2023-05-23T01:25:15.947Z,964.57
2023-05-23T01:26:15.910Z,964.58
2023-05-23T01:27:15.903Z,964.57
2023-05-23T01:28:15.886Z,964.61
2023-05-23T01:29:15.876Z,964.58
2023-05-23T01:30:15.886Z,964.59
2023-05-23T01:31:15.865Z,964.58
2023-05-23T01:32:15.847Z,964.56
2023-05-23T01:33:15.821Z,964.57
2023-05-23T01:34:15.803Z,964.53
2023-05-23T01:35:15.810Z,964.56
2023-05-23T01:36:15.797Z,964.58
2023-05-23T01:37:15.799Z,964.54
2023-05-23T01:38:15.806Z,964.56
2023-05-23T01:39:15.792Z,964.59
2023-05-23T01:40:15.747Z,964.55
2023-05-23T01:41:15.735Z,964.52
2023-05-23T01:42:15.734Z,964.53
2023-05-23T01:43:15.749Z,964.52
2023-05-23T01:44:15.720Z,964.52
2023-05-23T01:45:15.706Z,964.50
2023-05-23T01:46:15.735Z,964.46
2023-05-23T01:47:15.683Z,964.45
2023-05-23T01:48:15.670Z,964.47
2023-05-23T01:49:15.667Z,964.51
2023-05-23T01:50:15.636Z,964.54
2023-05-23T01:51:15.642Z,964.55
2023-05-23T01:52:15.616Z,964.57
2023-05-23T01:53:15.612Z,964.55
2023-05-23T01:54:15.583Z,964.51
2023-05-23T01:55:15.597Z,964.56
2023-05-23T01:56:15.562Z,964.60
2023-05-23T01:57:15.568Z,964.58
2023-05-23T01:58:15.531Z,964.58
2023-05-23T01:59:15.545Z,964.54
2023-05-23T02:00:15.537Z,964.56
2023-05-23T02:01:15.583Z,964.56
2023-05-23T02:02:15.547Z,964.52
2023-05-23T02:03:15.689Z,964.51
2023-05-23T02:04:15.474Z,964.51
2023-05-23T02:05:15.489Z,964.48
2023-05-23T02:06:15.459Z,964.55
2023-05-23T02:07:15.463Z,964.52
2023-05-23T02:08:15.432Z,964.51
2023-05-23T02:09:15.426Z,964.50
2023-05-23T02:10:15.405Z,964.55
2023-05-23T02:11:15.395Z,964.54
2023-05-23T02:12:15.410Z,964.55
2023-05-23T02:13:15.389Z,964.54
2023-05-23T02:14:15.362Z,964.57
2023-05-23T02:15:15.376Z,964.59
2023-05-23T02:16:15.347Z,964.58
2023-05-23T02:17:15.462Z,964.59
2023-05-23T02:18:15.322Z,964.58
2023-05-23T02:19:15.345Z,964.61
2023-05-23T02:20:15.288Z,964.60
2023-05-23T02:21:15.294Z,964.63
2023-05-23T02:22:15.274Z,964.65
2023-05-23T02:23:15.263Z,964.60
2023-05-23T02:24:15.277Z,964.66
2023-05-23T02:25:15.247Z,964.65
2023-05-23T02:26:15.243Z,964.64
2023-05-23T02:27:15.231Z,964.65
2023-05-23T02:28:15.216Z,964.65
2023-05-23T02:29:15.206Z,964.64
2023-05-23T02:30:15.185Z,964.64
2023-05-23T02:31:15.219Z,964.62
2023-05-23T02:32:15.164Z,964.65
2023-05-23T02:33:15.209Z,964.72
2023-05-23T02:34:15.163Z,964.71
2023-05-23T02:35:15.126Z,964.73
2023-05-23T02:36:15.114Z,964.74
2023-05-23T02:37:15.116Z,964.77
2023-05-23T02:38:15.117Z,964.74
2023-05-23T02:39:15.094Z,964.78
2023-05-23T02:40:15.072Z,964.79
2023-05-23T02:41:15.088Z,964.76
2023-05-23T02:42:15.055Z,964.79
2023-05-23T02:43:15.059Z,964.73
2023-05-23T02:44:15.027Z,964.82
2023-05-23T02:45:15.050Z,964.83
2023-05-23T02:46:15.034Z,964.86
2023-05-23T02:47:15.004Z,964.84
2023-05-23T02:48:14.994Z,964.85
2023-05-23T02:49:15.030Z,964.84
2023-05-23T02:50:14.960Z,964.86
2023-05-23T02:51:14.951Z,964.88
2023-05-23T02:52:14.937Z,964.87
2023-05-23T02:53:14.932Z,964.87
2023-05-23T02:54:14.920Z,964.84
2023-05-23T02:55:14.896Z,964.91
2023-05-23T02:56:14.887Z,964.90
2023-05-23T02:57:14.890Z,964.91
2023-05-23T02:58:14.878Z,964.89
2023-05-23T02:59:14.848Z,964.90
2023-05-23T03:00:14.857Z,964.84
2023-05-23T03:01:14.828Z,964.87
2023-05-23T03:02:14.926Z,964.81
2023-05-23T03:03:14.915Z,964.86
2023-05-23T03:04:14.837Z,964.83
2023-05-23T03:05:14.888Z,964.80
2023-05-23T03:06:14.929Z,964.83
2023-05-23T03:07:26.943Z,964.78
2023-05-23T03:08:14.807Z,964.83
2023-05-23T03:09:14.847Z,964.76
2023-05-23T03:10:14.808Z,964.79
2023-05-23T03:11:14.816Z,964.77
2023-05-23T03:12:14.799Z,964.77
2023-05-23T03:13:14.795Z,964.75
2023-05-23T03:14:14.763Z,964.77
2023-05-23T03:15:14.753Z,964.78
2023-05-23T03:16:14.786Z,964.76
2023-05-23T03:17:14.724Z,964.76
2023-05-23T03:18:14.723Z,964.82
2023-05-23T03:19:14.736Z,964.76
2023-05-23T03:20:14.699Z,964.78
2023-05-23T03:21:14.675Z,964.84
2023-05-23T03:22:14.681Z,964.80
2023-05-23T03:23:14.660Z,964.83
2023-05-23T03:24:14.665Z,964.82
2023-05-23T03:25:14.658Z,964.82
2023-05-23T03:26:14.650Z,964.79
2023-05-23T03:27:14.666Z,964.78
2023-05-23T03:28:14.610Z,964.76
2023-05-23T03:29:14.615Z,964.79
2023-05-23T03:30:14.596Z,964.83
2023-05-23T03:31:14.576Z,964.79
2023-05-23T03:32:14.673Z,964.78
2023-05-23T03:33:14.552Z,964.82
2023-05-23T03:34:14.537Z,964.80
2023-05-23T03:35:14.516Z,964.78
2023-05-23T03:36:14.529Z,964.80
2023-05-23T03:37:14.499Z,964.82
2023-05-23T03:38:14.506Z,964.81
2023-05-23T03:39:14.502Z,964.82
2023-05-23T03:40:14.471Z,964.81
2023-05-23T03:41:14.511Z,964.82
2023-05-23T03:42:14.453Z,964.78
2023-05-23T03:43:14.437Z,964.79
2023-05-23T03:44:14.445Z,964.78
2023-05-23T03:45:14.439Z,964.78
2023-05-23T03:46:14.453Z,964.76
2023-05-23T03:47:14.415Z,964.79
2023-05-23T03:48:14.395Z,964.80
2023-05-23T03:49:14.355Z,964.82
2023-05-23T03:50:14.367Z,964.87
2023-05-23T03:51:14.368Z,964.86
2023-05-23T03:52:14.368Z,964.89
2023-05-23T03:53:14.332Z,964.89
2023-05-23T03:54:14.306Z,964.88
2023-05-23T03:55:14.309Z,964.90
2023-05-23T03:56:14.290Z,964.90
2023-05-23T03:57:14.297Z,964.90
2023-05-23T03:58:14.275Z,964.91
2023-05-23T03:59:14.273Z,964.88
2023-05-23T04:00:14.252Z,964.85
2023-05-23T04:01:14.247Z,964.89
2023-05-23T04:02:14.255Z,964.86
2023-05-23T04:03:14.334Z,964.89
2023-05-23T04:04:14.305Z,964.89
2023-05-23T04:05:14.199Z,964.89
2023-05-23T04:06:14.540Z,964.86
2023-05-23T04:07:14.165Z,964.87
2023-05-23T04:08:14.149Z,964.89
2023-05-23T04:09:14.162Z,964.92
2023-05-23T04:10:14.142Z,964.94
2023-05-23T04:11:14.124Z,964.91
2023-05-23T04:12:14.123Z,964.93
2023-05-23T04:13:14.115Z,964.94
2023-05-23T04:14:14.078Z,964.94
2023-05-23T04:15:14.091Z,964.97
2023-05-23T04:16:14.066Z,964.96
2023-05-23T04:17:14.068Z,964.96
2023-05-23T04:18:14.063Z,964.98
2023-05-23T04:19:14.054Z,964.94
2023-05-23T04:20:14.026Z,964.95
2023-05-23T04:21:13.998Z,964.91
2023-05-23T04:22:13.941Z,964.89
2023-05-23T04:23:13.936Z,964.92
2023-05-23T04:24:13.908Z,964.90
2023-05-23T04:25:13.924Z,964.90
2023-05-23T04:26:13.875Z,964.88
2023-05-23T04:27:13.863Z,964.89
2023-05-23T04:28:13.846Z,964.91
2023-05-23T04:29:13.855Z,964.91
2023-05-23T04:30:13.831Z,964.92
2023-05-23T04:31:13.933Z,964.86
2023-05-23T04:32:13.817Z,964.92
2023-05-23T04:33:13.804Z,964.96
2023-05-23T04:34:13.799Z,964.90
2023-05-23T04:35:14.650Z,964.97
2023-05-23T04:36:13.767Z,964.91
2023-05-23T04:37:13.751Z,964.92
2023-05-23T04:38:13.806Z,964.89
2023-05-23T04:39:13.725Z,964.92
2023-05-23T04:40:13.711Z,964.89
2023-05-23T04:41:13.724Z,964.90
2023-05-23T04:42:15.128Z,964.92
2023-05-23T04:43:13.694Z,964.96
2023-05-23T04:44:13.663Z,964.97
2023-05-23T04:45:13.684Z,965.03
2023-05-23T04:46:13.713Z,964.98
2023-05-23T04:47:13.645Z,965.06
2023-05-23T04:48:13.777Z,965.05
2023-05-23T04:49:13.607Z,965.03
2023-05-23T04:50:13.606Z,965.05
2023-05-23T04:51:13.579Z,965.06
2023-05-23T04:52:13.579Z,965.06
2023-05-23T04:53:13.596Z,965.04
2023-05-23T04:54:13.556Z,965.05
2023-05-23T04:55:13.548Z,965.00
2023-05-23T04:56:13.548Z,965.03
2023-05-23T04:57:13.506Z,965.00
2023-05-23T04:58:13.529Z,965.05
2023-05-23T04:59:13.504Z,965.05
2023-05-23T05:00:13.506Z,965.00
2023-05-23T05:01:13.497Z,965.04
2023-05-23T05:02:13.468Z,965.08
2023-05-23T05:03:13.452Z,965.10
2023-05-23T05:04:13.469Z,965.13
2023-05-23T05:05:13.433Z,965.15
2023-05-23T05:06:13.427Z,965.18
2023-05-23T05:07:13.439Z,965.15
2023-05-23T05:08:13.399Z,965.16
2023-05-23T05:09:13.398Z,965.14
2023-05-23T05:10:13.395Z,965.12
2023-05-23T05:11:13.367Z,965.13
2023-05-23T05:12:13.389Z,965.14
2023-05-23T05:13:13.343Z,965.15
2023-05-23T05:14:13.335Z,965.11
2023-05-23T05:15:13.304Z,965.15
2023-05-23T05:16:13.369Z,965.16
2023-05-23T05:17:13.317Z,965.13
2023-05-23T05:18:13.303Z,965.19
2023-05-23T05:19:13.316Z,965.17
2023-05-23T05:20:13.283Z,965.20
2023-05-23T05:21:13.246Z,965.19
2023-05-23T05:22:13.243Z,965.19
2023-05-23T05:23:13.231Z,965.18
2023-05-23T05:24:13.240Z,965.25
2023-05-23T05:25:13.236Z,965.26
2023-05-23T05:26:13.204Z,965.31
2023-05-23T05:27:13.187Z,965.34
2023-05-23T05:28:13.186Z,965.35
2023-05-23T05:29:13.154Z,965.38
2023-05-23T05:30:13.160Z,965.34
2023-05-23T05:31:13.185Z,965.33
2023-05-23T05:32:13.134Z,965.37
2023-05-23T05:33:13.115Z,965.39
2023-05-23T05:34:13.090Z,965.38
2023-05-23T05:35:13.086Z,965.30
2023-05-23T05:36:13.097Z,965.31
2023-05-23T05:37:13.065Z,965.28
2023-05-23T05:38:13.060Z,965.29
2023-05-23T05:39:13.063Z,965.30
2023-05-23T05:40:13.048Z,965.31
2023-05-23T05:41:13.035Z,965.32
2023-05-23T05:42:13.016Z,965.34
2023-05-23T05:43:13.027Z,965.35
2023-05-23T05:44:12.987Z,965.34
2023-05-23T05:45:12.977Z,965.34
2023-05-23T05:46:13.029Z,965.34
2023-05-23T05:47:12.933Z,965.38
2023-05-23T05:48:13.036Z,965.36
2023-05-23T05:49:12.926Z,965.36
2023-05-23T05:50:12.935Z,965.34
2023-05-23T05:51:12.914Z,965.36
2023-05-23T05:52:12.894Z,965.35
2023-05-23T05:53:12.888Z,965.43
2023-05-23T05:54:12.904Z,965.39
2023-05-23T05:55:12.894Z,965.37
2023-05-23T05:56:12.858Z,965.35
2023-05-23T05:57:12.840Z,965.36
2023-05-23T05:58:12.856Z,965.39
2023-05-23T05:59:12.804Z,965.36
2023-05-23T06:00:12.830Z,965.39
2023-05-23T06:01:12.803Z,965.40
2023-05-23T06:02:12.851Z,965.43
2023-05-23T06:03:13.043Z,965.36
2023-05-23T06:04:12.925Z,965.37
2023-05-23T06:05:12.741Z,965.33
2023-05-23T06:06:12.771Z,965.32
2023-05-23T06:07:12.733Z,965.28
2023-05-23T06:08:12.724Z,965.33
2023-05-23T06:09:12.712Z,965.29
2023-05-23T06:10:12.708Z,965.29
2023-05-23T06:11:12.673Z,965.30
2023-05-23T06:12:12.708Z,965.31
2023-05-23T06:13:12.662Z,965.27
2023-05-23T06:14:12.670Z,965.29
2023-05-23T06:15:12.627Z,965.30
2023-05-23T06:16:12.646Z,965.32
2023-05-23T06:17:13.232Z,965.34
2023-05-23T06:18:12.620Z,965.32
2023-05-23T06:19:12.650Z,965.35
2023-05-23T06:20:12.614Z,965.34
2023-05-23T06:21:12.573Z,965.35
2023-05-23T06:22:12.676Z,965.34
2023-05-23T06:23:12.577Z,965.32
2023-05-23T06:24:12.554Z,965.30
2023-05-23T06:25:12.540Z,965.34
2023-05-23T06:26:12.654Z,965.32
2023-05-23T06:27:12.506Z,965.31
2023-05-23T06:28:12.536Z,965.31
2023-05-23T06:29:12.507Z,965.36
2023-05-23T06:30:12.499Z,965.35
2023-05-23T06:31:12.515Z,965.39
2023-05-23T06:32:12.506Z,965.40
2023-05-23T06:33:12.514Z,965.41
2023-05-23T06:34:12.463Z,965.42
2023-05-23T06:35:12.421Z,965.39
2023-05-23T06:36:12.436Z,965.38
2023-05-23T06:37:12.379Z,965.43
2023-05-23T06:38:12.378Z,965.40
2023-05-23T06:39:12.385Z,965.38
2023-05-23T06:40:12.352Z,965.40
2023-05-23T06:41:12.335Z,965.40
2023-05-23T06:42:12.332Z,965.42
2023-05-23T06:43:12.336Z,965.35
2023-05-23T06:44:12.360Z,965.37
2023-05-23T06:45:14.285Z,965.37
2023-05-23T06:46:12.331Z,965.39
2023-05-23T06:47:12.271Z,965.38
2023-05-23T06:48:12.287Z,965.39
2023-05-23T06:49:15.240Z,965.36
2023-05-23T06:50:12.253Z,965.43
2023-05-23T06:51:12.259Z,965.43
2023-05-23T06:52:12.229Z,965.45
2023-05-23T06:53:12.219Z,965.45
2023-05-23T06:54:12.222Z,965.45
2023-05-23T06:55:12.192Z,965.46
2023-05-23T06:56:12.205Z,965.40
2023-05-23T06:57:12.164Z,965.39
2023-05-23T06:58:12.184Z,965.37
2023-05-23T06:59:12.157Z,965.36
2023-05-23T07:00:12.135Z,965.32
2023-05-23T07:01:12.139Z,965.32
2023-05-23T07:02:12.134Z,965.33
2023-05-23T07:03:12.124Z,965.37
2023-05-23T07:04:12.174Z,965.38
2023-05-23T07:05:12.110Z,965.41
2023-05-23T07:06:12.080Z,965.42
2023-05-23T07:07:12.067Z,965.40
2023-05-23T07:08:12.080Z,965.41
2023-05-23T07:09:12.054Z,965.39
2023-05-23T07:10:12.067Z,965.44
2023-05-23T07:11:12.020Z,965.43
2023-05-23T07:12:12.016Z,965.45
2023-05-23T07:13:12.011Z,965.41
2023-05-23T07:14:12.018Z,965.45
2023-05-23T07:15:11.971Z,965.48
2023-05-23T07:16:11.967Z,965.47
2023-05-23T07:17:12.010Z,965.42
2023-05-23T07:18:11.969Z,965.49
2023-05-23T07:19:11.949Z,965.48
2023-05-23T07:20:11.948Z,965.47
2023-05-23T07:21:11.910Z,965.45
2023-05-23T07:22:11.936Z,965.44
2023-05-23T07:23:11.885Z,965.39
2023-05-23T07:24:11.889Z,965.46
2023-05-23T07:25:11.918Z,965.41
2023-05-23T07:26:11.869Z,965.41
2023-05-23T07:27:11.850Z,965.39
2023-05-23T07:28:11.844Z,965.44
2023-05-23T07:29:11.846Z,965.44
2023-05-23T07:30:11.810Z,965.45
2023-05-23T07:31:11.826Z,965.41
2023-05-23T07:32:11.808Z,965.41
2023-05-23T07:33:11.834Z,965.45
2023-05-23T07:34:11.778Z,965.44
2023-05-23T07:35:11.775Z,965.45
2023-05-23T07:36:11.788Z,965.47
2023-05-23T07:37:11.758Z,965.51
2023-05-23T07:38:11.722Z,965.51
2023-05-23T07:39:11.713Z,965.49
2023-05-23T07:40:11.730Z,965.47
2023-05-23T07:41:12.499Z,965.48
2023-05-23T07:42:11.680Z,965.47
2023-05-23T07:43:11.667Z,965.49
2023-05-23T07:44:11.664Z,965.44
2023-05-23T07:45:11.680Z,965.46
2023-05-23T07:46:11.681Z,965.45
2023-05-23T07:47:11.655Z,965.39
2023-05-23T07:48:11.631Z,965.41
2023-05-23T07:49:11.617Z,965.40
2023-05-23T07:50:11.599Z,965.39
2023-05-23T07:51:11.595Z,965.39
2023-05-23T07:52:11.578Z,965.42
2023-05-23T07:53:11.592Z,965.41
2023-05-23T07:54:11.573Z,965.38
2023-05-23T07:55:11.542Z,965.41
2023-05-23T07:56:11.555Z,965.41
2023-05-23T07:57:11.536Z,965.42
2023-05-23T07:58:11.514Z,965.40
2023-05-23T07:59:11.512Z,965.38
2023-05-23T08:00:11.493Z,965.39
2023-05-23T08:01:11.484Z,965.36
2023-05-23T08:02:11.559Z,965.33
2023-05-23T08:03:11.515Z,965.37
2023-05-23T08:04:11.514Z,965.36
2023-05-23T08:05:11.451Z,965.37
2023-05-23T08:06:11.512Z,965.35
2023-05-23T08:07:11.423Z,965.35
2023-05-23T08:08:11.427Z,965.34
2023-05-23T08:09:11.429Z,965.31
2023-05-23T08:10:11.414Z,965.28
2023-05-23T08:11:11.392Z,965.28
2023-05-23T08:12:11.386Z,965.31
2023-05-23T08:13:11.384Z,965.27
2023-05-23T08:14:11.371Z,965.24
2023-05-23T08:15:11.362Z,965.28
2023-05-23T08:16:11.409Z,965.26
2023-05-23T08:17:11.509Z,965.27
2023-05-23T08:18:11.449Z,965.27
2023-05-23T08:19:11.329Z,965.25
2023-05-23T08:20:11.297Z,965.27
2023-05-23T08:21:11.328Z,965.26
2023-05-23T08:22:11.291Z,965.28
2023-05-23T08:23:11.269Z,965.25
2023-05-23T08:24:14.040Z,965.26
2023-05-23T08:25:11.272Z,965.28
2023-05-23T08:26:11.249Z,965.28
2023-05-23T08:27:11.305Z,965.26
2023-05-23T08:28:11.220Z,965.26
2023-05-23T08:29:11.238Z,965.26
2023-05-23T08:30:11.262Z,965.23
2023-05-23T08:31:11.242Z,965.25
2023-05-23T08:32:11.308Z,965.26
2023-05-23T08:33:11.328Z,965.31
2023-05-23T08:34:11.165Z,965.29
2023-05-23T08:35:11.153Z,965.29
2023-05-23T08:36:11.156Z,965.30
2023-05-23T08:37:11.179Z,965.32
2023-05-23T08:38:11.121Z,965.35
2023-05-23T08:39:13.240Z,965.35
2023-05-23T08:40:11.115Z,965.32
2023-05-23T08:41:11.089Z,965.34
2023-05-23T08:42:11.115Z,965.34
2023-05-23T08:43:11.078Z,965.31
2023-05-23T08:44:11.065Z,965.37
2023-05-23T08:45:11.063Z,965.34
2023-05-23T08:46:11.085Z,965.35
2023-05-23T08:47:11.038Z,965.34
2023-05-23T08:48:11.008Z,965.31
2023-05-23T08:49:11.016Z,965.34
2023-05-23T08:50:11.000Z,965.41
2023-05-23T08:51:11.010Z,965.38
2023-05-23T08:52:10.988Z,965.44
2023-05-23T08:53:10.965Z,965.40
2023-05-23T08:54:10.951Z,965.43
2023-05-23T08:55:10.972Z,965.44
2023-05-23T08:56:10.939Z,965.43
2023-05-23T08:57:10.914Z,965.44
2023-05-23T08:58:10.937Z,965.43
2023-05-23T08:59:10.906Z,965.43
2023-05-23T09:00:10.960Z,965.43
2023-05-23T09:01:10.940Z,965.47
2023-05-23T09:02:10.892Z,965.48
2023-05-23T09:03:10.902Z,965.50
2023-05-23T09:04:10.846Z,965.56
2023-05-23T09:05:10.851Z,965.53
2023-05-23T09:06:10.834Z,965.53
2023-05-23T09:07:10.842Z,965.53
2023-05-23T09:08:10.803Z,965.54
2023-05-23T09:09:10.811Z,965.49
2023-05-23T09:10:10.784Z,965.47
2023-05-23T09:11:10.793Z,965.47
2023-05-23T09:12:10.778Z,965.54
2023-05-23T09:13:10.767Z,965.52
2023-05-23T09:14:10.772Z,965.55
2023-05-23T09:15:10.770Z,965.52
2023-05-23T09:16:10.791Z,965.51
2023-05-23T09:17:10.737Z,965.55
2023-05-23T09:18:10.718Z,965.54
2023-05-23T09:19:10.794Z,965.49
2023-05-23T09:20:10.709Z,965.53
2023-05-23T09:21:10.690Z,965.51
2023-05-23T09:22:10.683Z,965.54
2023-05-23T09:23:10.662Z,965.56
2023-05-23T09:24:10.664Z,965.55
2023-05-23T09:25:10.651Z,965.57
2023-05-23T09:26:10.623Z,965.58
2023-05-23T09:27:10.651Z,965.53
2023-05-23T09:28:10.612Z,965.58
2023-05-23T09:29:10.597Z,965.54
2023-05-23T09:30:10.627Z,965.55
2023-05-23T09:31:10.733Z,965.58
2023-05-23T09:32:10.566Z,965.56
2023-05-23T09:33:10.636Z,965.56
2023-05-23T09:34:10.571Z,965.48
2023-05-23T09:35:10.543Z,965.50
2023-05-23T09:36:10.538Z,965.47
2023-05-23T09:37:10.533Z,965.48
2023-05-23T09:38:10.499Z,965.48
2023-05-23T09:39:10.483Z,965.51
2023-05-23T09:40:10.712Z,965.50
2023-05-23T09:41:10.487Z,965.57
2023-05-23T09:42:10.463Z,965.54
2023-05-23T09:43:10.456Z,965.51
2023-05-23T09:44:10.456Z,965.51
2023-05-23T09:45:10.437Z,965.54
2023-05-23T09:46:10.406Z,965.60
2023-05-23T09:47:10.515Z,965.59
2023-05-23T09:48:10.479Z,965.57
2023-05-23T09:49:10.377Z,965.59
2023-05-23T09:50:10.379Z,965.62
2023-05-23T09:51:10.368Z,965.60
2023-05-23T09:52:10.334Z,965.59
2023-05-23T09:53:10.355Z,965.65
2023-05-23T09:54:10.325Z,965.63
2023-05-23T09:55:10.325Z,965.62
2023-05-23T09:56:10.302Z,965.64
2023-05-23T09:57:10.316Z,965.67
2023-05-23T09:58:10.310Z,965.67
2023-05-23T09:59:10.289Z,965.68
2023-05-23T10:00:10.274Z,965.67
2023-05-23T10:01:10.304Z,965.72
2023-05-23T10:02:10.259Z,965.73
2023-05-23T10:03:10.303Z,965.77
2023-05-23T10:04:10.270Z,965.86
2023-05-23T10:05:10.230Z,965.82
2023-05-23T10:06:10.214Z,965.86
2023-05-23T10:07:10.231Z,965.88
2023-05-23T10:08:10.185Z,965.88
2023-05-23T10:09:10.188Z,965.88
2023-05-23T10:10:10.178Z,965.90
2023-05-23T10:11:10.162Z,965.90
2023-05-23T10:12:10.163Z,965.88
2023-05-23T10:13:10.158Z,965.92
2023-05-23T10:14:10.140Z,965.89
2023-05-23T10:15:10.123Z,965.88
2023-05-23T10:16:10.114Z,965.92
2023-05-23T10:17:10.183Z,965.90
2023-05-23T10:18:10.196Z,965.92
2023-05-23T10:19:10.094Z,965.91
2023-05-23T10:20:10.077Z,965.94
2023-05-23T10:21:10.070Z,965.95
2023-05-23T10:22:10.063Z,965.93
2023-05-23T10:23:10.057Z,965.95
2023-05-23T10:24:10.023Z,965.95
2023-05-23T10:25:10.027Z,965.95
2023-05-23T10:26:10.016Z,965.95
2023-05-23T10:27:09.990Z,965.96
2023-05-23T10:28:10.007Z,965.95
2023-05-23T10:29:09.988Z,965.94
2023-05-23T10:30:09.986Z,965.93
2023-05-23T10:31:10.014Z,965.93
2023-05-23T10:32:09.948Z,965.95
2023-05-23T10:33:09.934Z,965.91
2023-05-23T10:34:09.926Z,965.89
2023-05-23T10:35:09.927Z,965.91
2023-05-23T10:36:09.924Z,965.88
2023-05-23T10:37:09.897Z,965.88
2023-05-23T10:38:09.898Z,965.87
2023-05-23T10:39:09.960Z,965.80
2023-05-23T10:40:09.864Z,965.80
2023-05-23T10:41:09.848Z,965.80
2023-05-23T10:42:09.868Z,965.82
2023-05-23T10:43:09.837Z,965.82
2023-05-23T10:44:09.808Z,965.86
2023-05-23T10:45:09.830Z,965.85
2023-05-23T10:46:09.896Z,965.85
2023-05-23T10:47:09.910Z,965.85
2023-05-23T10:48:09.830Z,965.86
2023-05-23T10:49:09.770Z,965.86
2023-05-23T10:50:09.764Z,965.88
2023-05-23T10:51:09.773Z,965.83
2023-05-23T10:52:09.762Z,965.79
2023-05-23T10:53:09.729Z,965.84
2023-05-23T10:54:09.721Z,965.83
2023-05-23T10:55:09.702Z,965.78
2023-05-23T10:56:09.704Z,965.82
2023-05-23T10:57:09.703Z,965.81
2023-05-23T10:58:09.687Z,965.78
2023-05-23T10:59:09.668Z,965.79
2023-05-23T11:00:09.675Z,965.78
2023-05-23T11:01:09.644Z,965.76
2023-05-23T11:02:09.693Z,965.77
2023-05-23T11:03:09.701Z,965.78
2023-05-23T11:04:09.714Z,965.73
2023-05-23T11:05:09.969Z,965.74
2023-05-23T11:06:09.618Z,965.76
2023-05-23T11:07:09.603Z,965.75
2023-05-23T11:08:09.584Z,965.70
2023-05-23T11:09:09.587Z,965.70
2023-05-23T11:10:09.572Z,965.69
2023-05-23T11:11:09.557Z,965.72
2023-05-23T11:12:09.543Z,965.69
2023-05-23T11:13:09.541Z,965.69
2023-05-23T11:14:09.551Z,965.73
2023-05-23T11:15:09.594Z,965.70
2023-05-23T11:16:09.554Z,965.66
2023-05-23T11:17:09.496Z,965.67
2023-05-23T11:18:09.506Z,965.68
2023-05-23T11:19:09.513Z,965.64
2023-05-23T11:20:09.461Z,965.66
2023-05-23T11:21:09.472Z,965.63
2023-05-23T11:22:09.431Z,965.62
2023-05-23T11:23:09.428Z,965.61
2023-05-23T11:24:09.469Z,965.64
2023-05-23T11:25:09.427Z,965.64
2023-05-23T11:26:09.416Z,965.64
2023-05-23T11:27:09.412Z,965.60
2023-05-23T11:28:09.395Z,965.63
2023-05-23T11:29:09.420Z,965.59
2023-05-23T11:30:09.368Z,965.62
2023-05-23T11:31:09.358Z,965.58
2023-05-23T11:32:13.608Z,965.59
2023-05-23T11:33:09.412Z,965.65
2023-05-23T11:34:09.322Z,965.65
2023-05-23T11:35:09.308Z,965.65
2023-05-23T11:36:09.307Z,965.66
2023-05-23T11:37:09.297Z,965.63
2023-05-23T11:38:09.377Z,965.65
2023-05-23T11:39:09.272Z,965.64
2023-05-23T11:40:09.254Z,965.63
2023-05-23T11:41:09.292Z,965.60
2023-05-23T11:42:09.226Z,965.59
2023-05-23T11:43:09.232Z,965.57
2023-05-23T11:44:09.208Z,965.59
2023-05-23T11:45:09.262Z,965.58
2023-05-23T11:46:09.228Z,965.52
2023-05-23T11:47:09.226Z,965.47
2023-05-23T11:48:09.182Z,965.47
2023-05-23T11:49:09.188Z,965.48
2023-05-23T11:50:09.155Z,965.46
2023-05-23T11:51:09.157Z,965.46
2023-05-23T11:52:09.153Z,965.40
2023-05-23T11:53:09.129Z,965.39
2023-05-23T11:54:09.115Z,965.38
2023-05-23T11:55:09.189Z,965.33
2023-05-23T11:56:09.105Z,965.34
2023-05-23T11:57:09.194Z,965.27
2023-05-23T11:58:09.167Z,965.32
2023-05-23T11:59:09.056Z,965.31
2023-05-23T12:00:09.210Z,965.31
2023-05-23T12:01:09.135Z,965.28
2023-05-23T12:02:09.054Z,965.22
2023-05-23T12:03:09.139Z,965.20
2023-05-23T12:04:09.178Z,965.21
2023-05-23T12:05:08.972Z,965.23
2023-05-23T12:06:08.985Z,965.28
2023-05-23T12:07:08.978Z,965.21
2023-05-23T12:08:08.951Z,965.21
2023-05-23T12:09:08.942Z,965.22
2023-05-23T12:10:08.921Z,965.27
2023-05-23T12:11:08.923Z,965.23
2023-05-23T12:12:08.901Z,965.18
2023-05-23T12:13:08.889Z,965.23
2023-05-23T12:14:08.880Z,965.24
2023-05-23T12:15:09.030Z,965.26
2023-05-23T12:16:08.917Z,965.22
2023-05-23T12:17:08.861Z,965.24
2023-05-23T12:18:08.956Z,965.25
2023-05-23T12:19:08.869Z,965.24
2023-05-23T12:20:08.809Z,965.23
2023-05-23T12:21:08.993Z,965.22
2023-05-23T12:22:08.850Z,965.22
2023-05-23T12:23:08.770Z,965.23
2023-05-23T12:24:08.780Z,965.22
2023-05-23T12:25:08.768Z,965.25
2023-05-23T12:26:08.778Z,965.28
2023-05-23T12:27:08.720Z,965.25
2023-05-23T12:28:08.743Z,965.24
2023-05-23T12:29:08.711Z,965.26
2023-05-23T12:30:08.715Z,965.25